Time;durP1;ratioP1;P1;durP2;ratioP2;P2;SDS_P1;SDS_P2;PMS_P1;PMS_P2;Temp;Humidity;BMP_temperature;BMP_pressure;BME280_temperature;BME280_humidity;BME280_pressure;Samples;Min_cycle;Max_cycle;Signal;HPM_P1;HPM_P2
2023/09/05 00:00:17;;;;;;;0.00;0.00;;;17.00;99.90;;;;;;5060337;28;20482;-76
2023/09/05 00:02:45;;;;;;;0.00;0.00;;;17.00;99.90;;;;;;5060423;28;20444;-76
2023/09/05 00:05:12;;;;;;;0.10;0.10;;;17.10;99.90;;;;;;5060488;28;20035;-75
2023/09/05 00:07:39;;;;;;;0.10;0.10;;;17.10;99.90;;;;;;5042240;28;20519;-76
2023/09/05 00:10:08;;;;;;;0.00;0.00;;;17.00;99.90;;;;;;5060093;28;20694;-76
2023/09/05 00:12:43;;;;;;;0.10;0.10;;;17.00;99.90;;;;;;5042035;28;20356;-75
2023/09/05 00:15:11;;;;;;;0.00;0.00;;;17.00;99.90;;;;;;5042072;28;20032;-76
2023/09/05 00:17:38;;;;;;;0.00;0.00;;;17.00;99.90;;;;;;5060018;28;20252;-76
2023/09/05 00:20:05;;;;;;;0.05;0.05;;;17.00;99.90;;;;;;5059786;28;20025;-75
2023/09/05 00:22:31;;;;;;;0.00;0.00;;;17.00;99.90;;;;;;5060027;28;20402;-76
2023/09/05 00:24:57;;;;;;;0.00;0.00;;;17.00;99.90;;;;;;5059829;28;20024;-75
2023/09/05 00:27:22;;;;;;;0.10;0.10;;;16.90;99.90;;;;;;5059678;28;20571;-76
2023/09/05 00:29:48;;;;;;;0.00;0.00;;;16.90;99.90;;;;;;5059836;28;20468;-75
2023/09/05 00:32:14;;;;;;;5.47;5.25;;;16.90;99.90;;;;;;5059839;28;20715;-76
2023/09/05 00:34:41;;;;;;;0.00;0.00;;;16.90;99.90;;;;;;5059616;28;20276;-75
2023/09/05 00:37:08;;;;;;;0.00;0.00;;;16.80;99.90;;;;;;5059569;28;20135;-75
2023/09/05 00:39:35;;;;;;;0.30;0.30;;;16.80;99.90;;;;;;5059523;28;20027;-75
2023/09/05 00:42:03;;;;;;;0.10;0.10;;;16.80;99.90;;;;;;5059432;28;20023;-75
2023/09/05 00:44:29;;;;;;;0.17;0.17;;;16.80;99.90;;;;;;5059929;28;20329;-80
2023/09/05 00:46:58;;;;;;;0.00;0.00;;;16.80;99.90;;;;;;5059377;28;20197;-75
2023/09/05 00:49:28;;;;;;;0.00;0.00;;;16.80;99.90;;;;;;5059582;28;20063;-75
2023/09/05 00:51:56;;;;;;;0.00;0.00;;;16.80;99.90;;;;;;5059598;28;20016;-77
2023/09/05 00:54:22;;;;;;;0.00;0.00;;;16.80;99.90;;;;;;5060588;28;20025;-75
2023/09/05 00:56:48;;;;;;;2.30;2.20;;;16.80;99.90;;;;;;5059963;28;20428;-76
2023/09/05 00:59:14;;;;;;;3.13;2.92;;;16.70;99.90;;;;;;5060043;28;20043;-75
2023/09/05 01:01:40;;;;;;;6.47;6.07;;;16.70;99.90;;;;;;5041767;28;20522;-75
2023/09/05 01:04:06;;;;;;;5.60;5.22;;;16.70;99.90;;;;;;5059721;28;20036;-75
2023/09/05 01:06:37;;;;;;;5.38;2.30;;;16.70;99.90;;;;;;5059463;28;20552;-76
2023/09/05 01:09:13;;;;;;;5.57;5.20;;;16.60;99.90;;;;;;5059423;28;20013;-75
2023/09/05 01:11:40;;;;;;;2.38;2.25;;;16.70;99.90;;;;;;5059529;28;20020;-76
2023/09/05 01:14:06;;;;;;;1.38;1.27;;;16.70;99.90;;;;;;5059498;28;20088;-77
2023/09/05 01:16:32;;;;;;;10.95;10.23;;;16.60;99.90;;;;;;5059352;28;20165;-76
2023/09/05 01:19:01;;;;;;;0.50;0.50;;;16.60;99.90;;;;;;5059039;28;20016;-76
2023/09/05 01:21:35;;;;;;;0.05;0.05;;;16.60;99.90;;;;;;5059192;28;20122;-76
2023/09/05 01:24:21;;;;;;;0.28;0.28;;;16.60;99.90;;;;;;5059973;28;20036;-77
2023/09/05 01:26:49;;;;;;;0.10;0.10;;;16.50;99.90;;;;;;5040656;28;20040;-75
2023/09/05 01:29:18;;;;;;;0.00;0.00;;;16.50;99.90;;;;;;5059164;28;20108;-75
2023/09/05 01:31:45;;;;;;;0.10;0.10;;;16.50;99.90;;;;;;5058504;28;20613;-75
2023/09/05 01:34:11;;;;;;;0.00;0.00;;;16.50;99.90;;;;;;5058572;28;20028;-78
2023/09/05 01:36:37;;;;;;;0.00;0.00;;;16.90;99.90;;;;;;5059028;28;20056;-77
2023/09/05 01:39:03;;;;;;;0.00;0.00;;;16.40;99.90;;;;;;5059016;28;20106;-75
2023/09/05 01:41:28;;;;;;;0.00;0.00;;;16.40;99.90;;;;;;5058747;28;20100;-76
2023/09/05 01:43:54;;;;;;;0.10;0.10;;;16.40;99.90;;;;;;5058635;28;20108;-75
2023/09/05 01:46:20;;;;;;;0.00;0.00;;;16.40;99.90;;;;;;5058625;28;20346;-76
2023/09/05 01:48:46;;;;;;;0.00;0.00;;;16.40;99.90;;;;;;5058388;28;20108;-76
2023/09/05 01:51:12;;;;;;;0.10;0.10;;;16.40;99.90;;;;;;5058436;28;20099;-75
2023/09/05 01:53:37;;;;;;;0.65;0.65;;;16.40;99.90;;;;;;5058532;28;20028;-76
2023/09/05 01:56:03;;;;;;;0.00;0.00;;;16.50;99.90;;;;;;5058500;28;20590;-75
2023/09/05 01:58:29;;;;;;;0.00;0.00;;;16.40;99.90;;;;;;5058308;28;20078;-82
2023/09/05 02:00:55;;;;;;;1.67;1.55;;;16.50;99.90;;;;;;5058388;28;20081;-76
2023/09/05 02:03:20;;;;;;;0.00;0.00;;;16.50;99.90;;;;;;5040782;28;20345;-75
2023/09/05 02:05:46;;;;;;;0.00;0.00;;;16.40;99.90;;;;;;5058320;28;20077;-76
2023/09/05 02:08:12;;;;;;;0.10;0.10;;;16.40;99.90;;;;;;5058369;28;20017;-78
2023/09/05 02:10:38;;;;;;;0.10;0.10;;;16.50;99.90;;;;;;5058254;28;20032;-74
2023/09/05 02:13:03;;;;;;;0.10;0.10;;;16.50;99.90;;;;;;5058450;28;20226;-75
2023/09/05 02:15:29;;;;;;;0.00;0.00;;;16.50;99.90;;;;;;5058684;28;20021;-76
2023/09/05 02:17:55;;;;;;;0.10;0.10;;;;;;;;;;5058211;28;20027;-76
2023/09/05 02:20:22;;;;;;;0.10;0.10;;;16.50;99.90;;;;;;5058222;28;20036;-76
2023/09/05 02:22:48;;;;;;;0.20;0.20;;;16.50;99.90;;;;;;5058351;28;20016;-76
2023/09/05 02:25:14;;;;;;;0.10;0.10;;;16.50;99.90;;;;;;5057910;28;20009;-75
2023/09/05 02:27:40;;;;;;;0.00;0.00;;;16.50;99.90;;;;;;5039543;28;20656;-76
2023/09/05 02:30:07;;;;;;;0.85;0.65;;;16.50;99.90;;;;;;5057434;28;20401;-77
2023/09/05 02:32:33;;;;;;;0.10;0.10;;;16.50;99.90;;;;;;5058124;28;20020;-75
2023/09/05 02:34:59;;;;;;;0.10;0.10;;;18.00;99.90;;;;;;5057789;28;20020;-75
2023/09/05 02:37:25;;;;;;;0.10;0.10;;;16.50;99.90;;;;;;5058371;28;20037;-76
2023/09/05 02:39:52;;;;;;;0.15;0.15;;;16.40;99.90;;;;;;5058044;28;20024;-75
2023/09/05 02:42:18;;;;;;;0.00;0.00;;;16.40;99.90;;;;;;5057024;28;20025;-75
2023/09/05 02:44:44;;;;;;;0.10;0.10;;;16.40;99.90;;;;;;5058269;28;20099;-76
2023/09/05 02:47:10;;;;;;;0.00;0.00;;;16.40;99.90;;;;;;5058265;28;20253;-78
2023/09/05 02:49:35;;;;;;;0.00;0.00;;;16.40;99.90;;;;;;5057576;28;20028;-76
2023/09/05 02:52:01;;;;;;;0.03;0.03;;;15.50;99.90;;;;;;5057898;28;20020;-76
2023/09/05 02:54:30;;;;;;;0.32;0.32;;;16.30;99.90;;;;;;5058072;28;20332;-76
2023/09/05 02:56:56;;;;;;;0.10;0.10;;;16.30;99.90;;;;;;5058054;28;20125;-76
2023/09/05 02:59:22;;;;;;;0.57;0.57;;;16.30;99.90;;;;;;5058350;28;20490;-75
2023/09/05 03:01:48;;;;;;;0.10;0.10;;;16.30;99.90;;;;;;5039245;28;20055;-75
2023/09/05 03:04:14;;;;;;;0.20;0.20;;;16.30;99.90;;;;;;5039856;28;20511;-76
2023/09/05 03:06:41;;;;;;;0.40;0.40;;;16.30;99.90;;;;;;5057865;28;20470;-76
2023/09/05 03:09:07;;;;;;;0.28;0.28;;;16.30;99.90;;;;;;5057944;28;20189;-76
2023/09/05 03:11:32;;;;;;;0.00;0.00;;;16.30;99.90;;;;;;5057637;28;20401;-75
2023/09/05 03:13:58;;;;;;;0.10;0.10;;;;;;;;;;5057771;28;20031;-77
2023/09/05 03:16:24;;;;;;;0.10;0.10;;;16.30;99.90;;;;;;5057426;28;20031;-75
2023/09/05 03:18:50;;;;;;;1.95;1.55;;;16.30;99.90;;;;;;5057490;28;20021;-76
2023/09/05 03:21:17;;;;;;;0.00;0.00;;;16.30;99.90;;;;;;5057483;28;20025;-75
2023/09/05 03:23:43;;;;;;;0.10;0.10;;;16.30;99.90;;;;;;5057563;28;20272;-77
2023/09/05 03:26:09;;;;;;;0.00;0.00;;;16.30;99.90;;;;;;5057102;28;20032;-76
2023/09/05 03:28:53;;;;;;;0.20;0.20;;;16.30;99.90;;;;;;5057069;28;20309;-76
2023/09/05 03:31:19;;;;;;;0.00;0.00;;;16.40;99.90;;;;;;5057206;28;20471;-77
2023/09/05 03:33:45;;;;;;;0.38;0.38;;;16.40;99.90;;;;;;5057359;28;20087;-78
2023/09/05 03:36:11;;;;;;;0.00;0.00;;;16.40;99.90;;;;;;5057295;28;20036;-76
2023/09/05 03:38:37;;;;;;;0.00;0.00;;;16.40;99.90;;;;;;5057236;28;20024;-76
2023/09/05 03:41:02;;;;;;;0.63;0.63;;;16.30;99.90;;;;;;5057372;28;20029;-75
2023/09/05 03:43:28;;;;;;;0.03;0.03;;;16.30;99.90;;;;;;5057278;28;20023;-76
2023/09/05 03:45:54;;;;;;;0.10;0.10;;;16.30;99.90;;;;;;5057272;28;20021;-75
2023/09/05 03:48:20;;;;;;;0.00;0.00;;;17.40;99.90;;;;;;5057072;28;20031;-77
2023/09/05 03:50:46;;;;;;;0.10;0.10;;;16.20;99.90;;;;;;5057193;28;20087;-77
2023/09/05 03:53:11;;;;;;;1.17;0.95;;;16.30;99.90;;;;;;5057092;28;20482;-76
2023/09/05 03:55:37;;;;;;;0.20;0.20;;;16.30;99.90;;;;;;5060838;28;20680;-75
2023/09/05 03:58:04;;;;;;;0.00;0.00;;;16.30;99.90;;;;;;5061137;28;20048;-75
2023/09/05 04:00:33;;;;;;;0.10;0.10;;;16.20;99.90;;;;;;5061232;28;20409;-76
2023/09/05 04:03:02;;;;;;;0.10;0.10;;;16.20;99.90;;;;;;5060904;28;20161;-77
2023/09/05 04:05:29;;;;;;;3.30;3.08;;;16.30;99.90;;;;;;5061227;28;20536;-75
2023/09/05 04:07:54;;;;;;;0.38;0.38;;;16.30;99.90;;;;;;5060970;28;20024;-80
2023/09/05 04:10:21;;;;;;;0.00;0.00;;;16.30;99.90;;;;;;5061729;28;20037;-75
2023/09/05 04:12:46;;;;;;;0.10;0.10;;;16.20;99.90;;;;;;5061395;28;20105;-80
2023/09/05 04:15:19;;;;;;;0.00;0.00;;;16.20;99.90;;;;;;5061257;28;20514;-75
2023/09/05 04:17:45;;;;;;;0.00;0.00;;;16.20;99.90;;;;;;5060791;28;20474;-77
2023/09/05 04:20:13;;;;;;;0.10;0.10;;;16.20;99.90;;;;;;5060940;28;20059;-76
2023/09/05 04:22:39;;;;;;;0.30;0.30;;;16.20;99.90;;;;;;5060573;28;20012;-76
2023/09/05 04:25:06;;;;;;;0.25;0.25;;;16.20;99.90;;;;;;5061118;28;20024;-76
2023/09/05 04:27:32;;;;;;;0.00;0.00;;;16.30;99.90;;;;;;5061205;28;20033;-78
2023/09/05 04:29:58;;;;;;;0.00;0.00;;;;;;;;;;5060711;28;20059;-76
2023/09/05 04:32:32;;;;;;;1.65;1.55;;;16.20;99.90;;;;;;5060245;28;20532;-81
2023/09/05 04:35:00;;;;;;;0.40;0.40;;;16.10;99.90;;;;;;5060833;28;20028;-77
2023/09/05 04:37:26;;;;;;;0.00;0.00;;;16.20;99.90;;;;;;5060245;28;20294;-77
2023/09/05 04:39:52;;;;;;;0.00;0.00;;;16.30;99.90;;;;;;5060226;28;20013;-80
2023/09/05 04:42:19;;;;;;;0.32;0.32;;;16.20;99.90;;;;;;5041821;28;20032;-80
2023/09/05 04:44:45;;;;;;;1.13;1.13;;;16.30;99.90;;;;;;5060291;28;20032;-76
2023/09/05 04:47:26;;;;;;;0.10;0.10;;;16.30;99.90;;;;;;5059834;28;20028;-76
2023/09/05 04:49:54;;;;;;;0.00;0.00;;;16.40;99.90;;;;;;5060269;28;20111;-76
2023/09/05 04:52:21;;;;;;;0.00;0.00;;;16.40;99.90;;;;;;5059948;28;20020;-75
2023/09/05 04:54:48;;;;;;;0.30;0.30;;;16.40;99.90;;;;;;5059533;28;20433;-75
2023/09/05 04:57:14;;;;;;;0.10;0.10;;;16.50;99.90;;;;;;5059377;28;20032;-76
2023/09/05 04:59:43;;;;;;;0.10;0.10;;;16.50;99.90;;;;;;5059690;28;20029;-75
2023/09/05 05:02:09;;;;;;;0.00;0.00;;;16.50;99.90;;;;;;5059585;28;20016;-75
2023/09/05 05:04:36;;;;;;;0.00;0.00;;;16.50;99.90;;;;;;5059286;28;20029;-75
2023/09/05 05:07:02;;;;;;;0.20;0.20;;;16.50;99.90;;;;;;5058797;28;20024;-77
2023/09/05 05:09:27;;;;;;;0.00;0.00;;;16.60;99.90;;;;;;5059801;28;20400;-78
2023/09/05 05:11:54;;;;;;;0.00;0.00;;;16.10;99.90;;;;;;5041436;28;20482;-76
2023/09/05 05:14:19;;;;;;;0.00;0.00;;;16.60;99.90;;;;;;5060668;28;20033;-75
2023/09/05 05:16:45;;;;;;;0.15;0.15;;;16.60;99.90;;;;;;5059183;28;20692;-76
2023/09/05 05:19:11;;;;;;;0.20;0.20;;;16.60;99.90;;;;;;5059806;28;20025;-81
2023/09/05 05:21:40;;;;;;;0.10;0.10;;;16.60;99.90;;;;;;5059734;28;20038;-78
2023/09/05 05:24:07;;;;;;;0.10;0.10;;;16.70;99.90;;;;;;5060111;28;20021;-76
2023/09/05 05:26:33;;;;;;;0.20;0.20;;;16.60;99.90;;;;;;5059680;28;20048;-75
2023/09/05 05:28:58;;;;;;;0.10;0.10;;;16.60;99.90;;;;;;5041286;28;20024;-76
2023/09/05 05:31:26;;;;;;;0.80;0.80;;;16.60;99.90;;;;;;5059942;28;20031;-75
2023/09/05 05:33:52;;;;;;;0.00;0.00;;;16.60;99.90;;;;;;5059753;28;20028;-76
2023/09/05 05:36:18;;;;;;;0.00;0.00;;;16.60;99.90;;;;;;5058906;28;20021;-77
2023/09/05 05:38:44;;;;;;;0.20;0.20;;;16.60;99.90;;;;;;5040864;28;20052;-76
2023/09/05 05:41:10;;;;;;;0.00;0.00;;;16.60;99.90;;;;;;5058977;28;20078;-76
2023/09/05 05:43:36;;;;;;;0.00;0.00;;;16.70;99.90;;;;;;5058506;28;20017;-76
2023/09/05 05:46:02;;;;;;;0.00;0.00;;;16.80;99.90;;;;;;5058499;28;20391;-75
2023/09/05 05:48:28;;;;;;;0.10;0.10;;;16.70;99.90;;;;;;5058380;28;20142;-76
2023/09/05 05:50:55;;;;;;;0.10;0.10;;;16.70;99.90;;;;;;5058216;28;20032;-78
2023/09/05 05:53:21;;;;;;;0.47;0.47;;;16.70;99.90;;;;;;5058320;28;20017;-74
2023/09/05 05:55:47;;;;;;;0.00;0.00;;;16.80;99.90;;;;;;5058374;28;20013;-75
2023/09/05 05:58:15;;;;;;;0.03;0.03;;;16.80;99.90;;;;;;5058292;28;20433;-82
2023/09/05 06:00:50;;;;;;;0.00;0.00;;;16.80;99.90;;;;;;5058030;28;20525;-76
2023/09/05 06:03:20;;;;;;;0.35;0.35;;;16.80;99.90;;;;;;5057984;28;20038;-74
2023/09/05 06:05:47;;;;;;;0.00;0.00;;;18.60;99.90;;;;;;5057998;28;20525;-75
2023/09/05 06:08:13;;;;;;;0.10;0.10;;;16.70;99.90;;;;;;5039937;28;20527;-76
2023/09/05 06:10:39;;;;;;;0.32;0.32;;;16.70;99.90;;;;;;5057954;28;20024;-79
2023/09/05 06:13:05;;;;;;;0.00;0.00;;;16.80;99.90;;;;;;5057945;28;20382;-75
2023/09/05 06:15:32;;;;;;;0.00;0.00;;;16.80;99.90;;;;;;5039681;28;20053;-76
2023/09/05 06:17:59;;;;;;;0.10;0.10;;;16.80;99.90;;;;;;5057283;28;20091;-76
2023/09/05 06:20:25;;;;;;;0.10;0.10;;;16.80;99.90;;;;;;5057837;28;20020;-76
2023/09/05 06:22:51;;;;;;;0.20;0.20;;;16.90;99.90;;;;;;5039091;28;20040;-76
2023/09/05 06:25:17;;;;;;;0.10;0.10;;;16.90;99.90;;;;;;5057543;28;20043;-76
2023/09/05 06:27:43;;;;;;;0.10;0.10;;;16.90;99.90;;;;;;5058204;28;20679;-76
2023/09/05 06:30:12;;;;;;;0.10;0.10;;;16.90;99.90;;;;;;5058127;28;20483;-76
2023/09/05 06:32:39;;;;;;;0.10;0.10;;;16.90;99.90;;;;;;5058356;28;20021;-75
2023/09/05 06:35:05;;;;;;;0.00;0.00;;;16.70;99.90;;;;;;5057579;28;20285;-75
2023/09/05 06:37:34;;;;;;;0.00;0.00;;;16.90;99.90;;;;;;5057480;28;20021;-76
2023/09/05 06:40:09;;;;;;;0.00;0.00;;;16.90;99.90;;;;;;5057626;28;20209;-75
2023/09/05 06:42:39;;;;;;;0.17;0.17;;;17.00;99.90;;;;;;5057629;28;20008;-77
2023/09/05 06:45:05;;;;;;;0.00;0.00;;;17.00;99.90;;;;;;5057490;28;20108;-77
2023/09/05 06:47:31;;;;;;;0.00;0.00;;;17.10;99.90;;;;;;5057038;28;20012;-77
2023/09/05 06:49:57;;;;;;;0.10;0.10;;;17.20;99.90;;;;;;5039280;28;20044;-76
2023/09/05 06:52:23;;;;;;;0.10;0.10;;;17.20;99.90;;;;;;5057223;28;20013;-76
2023/09/05 06:54:50;;;;;;;1.58;1.50;;;17.30;99.90;;;;;;5057201;28;20245;-76
2023/09/05 06:57:17;;;;;;;0.10;0.10;;;17.40;99.90;;;;;;5040159;28;20428;-76
2023/09/05 06:59:43;;;;;;;0.10;0.10;;;17.40;99.90;;;;;;5057745;28;20060;-77
2023/09/05 07:02:09;;;;;;;0.10;0.10;;;17.50;99.90;;;;;;5058475;28;20454;-76
2023/09/05 07:04:36;;;;;;;0.10;0.10;;;17.50;99.90;;;;;;5057758;28;20024;-76
2023/09/05 07:07:03;;;;;;;0.00;0.00;;;17.60;99.90;;;;;;5057607;28;20559;-75
2023/09/05 07:09:29;;;;;;;0.00;0.00;;;17.60;99.90;;;;;;5057025;28;20102;-76
2023/09/05 07:11:55;;;;;;;1.50;1.50;;;17.70;99.90;;;;;;5057565;28;20655;-76
2023/09/05 07:14:21;;;;;;;0.88;0.88;;;17.70;99.90;;;;;;5058683;28;20025;-76
2023/09/05 07:16:47;;;;;;;1.35;1.10;;;17.60;99.90;;;;;;5072998;28;20017;-76
2023/09/05 07:19:13;;;;;;;0.00;0.00;;;17.60;99.90;;;;;;5057567;28;20104;-76
2023/09/05 07:21:40;;;;;;;0.00;0.00;;;17.70;99.90;;;;;;5039348;28;20214;-76
2023/09/05 07:24:13;;;;;;;0.55;0.20;;;17.60;99.90;;;;;;5057949;28;20017;-76
2023/09/05 07:26:40;;;;;;;0.00;0.00;;;17.60;99.90;;;;;;5022529;28;20048;-76
2023/09/05 07:29:09;;;;;;;0.00;0.00;;;17.60;99.90;;;;;;5060889;28;20033;-76
2023/09/05 07:31:35;;;;;;;0.00;0.00;;;17.50;99.90;;;;;;5042546;28;20020;-78
2023/09/05 07:34:01;;;;;;;0.10;0.10;;;17.50;99.90;;;;;;5061075;28;20251;-76
2023/09/05 07:36:31;;;;;;;0.35;0.35;;;17.40;99.90;;;;;;5060393;28;20060;-77
2023/09/05 07:38:58;;;;;;;2.10;1.95;;;17.40;99.90;;;;;;5060552;28;20305;-75
2023/09/05 07:41:24;;;;;;;0.10;0.10;;;17.40;99.90;;;;;;5060878;28;20394;-75
2023/09/05 07:43:50;;;;;;;0.00;0.00;;;17.30;99.90;;;;;;5060988;28;20458;-76
2023/09/05 07:46:16;;;;;;;0.10;0.10;;;17.40;99.90;;;;;;5043169;28;20024;-76
2023/09/05 07:48:41;;;;;;;0.55;0.55;;;17.30;99.90;;;;;;5060868;28;20033;-79
2023/09/05 07:51:07;;;;;;;0.10;0.10;;;17.30;99.90;;;;;;5060592;28;20108;-76
2023/09/05 07:53:37;;;;;;;0.10;0.10;;;17.30;99.90;;;;;;5060308;28;20221;-77
2023/09/05 07:56:04;;;;;;;0.00;0.00;;;17.30;99.90;;;;;;5041877;28;20105;-76
2023/09/05 07:58:30;;;;;;;0.10;0.10;;;17.20;99.90;;;;;;5042158;28;20027;-76
2023/09/05 08:00:56;;;;;;;1.25;0.80;;;18.00;99.90;;;;;;5060042;28;20090;-77
2023/09/05 08:03:27;;;;;;;0.00;0.00;;;17.30;99.90;;;;;;5060007;28;20107;-76
2023/09/05 08:05:54;;;;;;;0.00;0.00;;;16.70;99.90;;;;;;5060448;28;20509;-77
2023/09/05 08:08:20;;;;;;;0.00;0.00;;;17.20;99.90;;;;;;5060259;28;20024;-77
2023/09/05 08:10:47;;;;;;;0.00;0.00;;;17.20;99.90;;;;;;5060581;28;20032;-76
2023/09/05 08:13:14;;;;;;;0.55;0.55;;;17.20;99.90;;;;;;5060114;28;20016;-77
2023/09/05 08:15:43;;;;;;;0.00;0.00;;;17.20;99.90;;;;;;5060155;28;20099;-76
2023/09/05 08:18:10;;;;;;;0.63;0.63;;;17.20;99.90;;;;;;5042104;28;20439;-77
2023/09/05 08:20:37;;;;;;;0.40;0.38;;;17.20;99.90;;;;;;5060407;28;20067;-76
2023/09/05 08:23:03;;;;;;;16.83;10.00;;;17.20;99.90;;;;;;5060105;28;20502;-76
2023/09/05 08:25:29;;;;;;;0.60;0.60;;;17.20;99.90;;;;;;5060012;28;20025;-77
2023/09/05 08:27:56;;;;;;;0.00;0.00;;;17.30;99.90;;;;;;5041538;28;20037;-76
2023/09/05 08:30:24;;;;;;;0.00;0.00;;;17.30;99.90;;;;;;5059981;28;20032;-76
2023/09/05 08:32:50;;;;;;;0.10;0.10;;;17.30;99.90;;;;;;5059510;28;20017;-76
2023/09/05 08:35:16;;;;;;;0.10;0.10;;;18.90;99.90;;;;;;5059699;28;20562;-77
2023/09/05 08:37:43;;;;;;;0.00;0.00;;;17.40;99.90;;;;;;5060066;28;20320;-76
2023/09/05 08:40:09;;;;;;;0.00;0.00;;;17.40;99.90;;;;;;5041131;28;20500;-77
2023/09/05 08:42:37;;;;;;;0.20;0.20;;;17.40;99.90;;;;;;5041589;28;20025;-75
2023/09/05 08:45:04;;;;;;;0.57;0.57;;;17.40;99.90;;;;;;5025167;28;20158;-76
2023/09/05 08:47:31;;;;;;;0.00;0.00;;;17.40;99.90;;;;;;5041578;28;20063;-75
2023/09/05 08:50:00;;;;;;;0.10;0.10;;;17.50;99.90;;;;;;5059706;28;20040;-76
2023/09/05 08:52:31;;;;;;;0.10;0.10;;;17.50;99.90;;;;;;5059897;28;20716;-77
2023/09/05 08:54:59;;;;;;;0.20;0.20;;;17.60;99.90;;;;;;5059770;28;20609;-78
2023/09/05 08:57:30;;;;;;;0.10;0.10;;;17.60;99.90;;;;;;5059453;28;20024;-76
2023/09/05 08:59:56;;;;;;;0.77;0.77;;;17.70;99.90;;;;;;5042316;28;20021;-76
2023/09/05 09:02:22;;;;;;;0.10;0.10;;;17.70;99.90;;;;;;5042023;28;20094;-76
2023/09/05 09:04:57;;;;;;;0.08;0.08;;;17.80;99.90;;;;;;5060543;28;20258;-77
2023/09/05 09:07:27;;;;;;;0.10;0.10;;;17.90;99.90;;;;;;5060180;28;20210;-77
2023/09/05 09:09:54;;;;;;;0.00;0.00;;;17.90;99.90;;;;;;5060075;28;20032;-78
2023/09/05 09:12:31;;;;;;;0.00;0.00;;;17.90;99.90;;;;;;5058954;28;20055;-76
2023/09/05 09:15:13;;;;;;;0.00;0.00;;;18.00;99.90;;;;;;5041005;28;20120;-78
2023/09/05 09:17:47;;;;;;;1.25;1.13;;;18.00;99.90;;;;;;5041134;28;20321;-78
2023/09/05 09:20:13;;;;;;;;;;;18.00;99.90;;;;;;5041424;28;20074;-76
2023/09/05 09:22:40;;;;;;;0.10;0.10;;;18.10;99.90;;;;;;5060399;28;19983;-76
2023/09/05 09:25:14;;;;;;;0.20;0.20;;;18.10;99.90;;;;;;5040879;28;20095;-77
2023/09/05 09:27:43;;;;;;;0.10;0.10;;;18.10;99.90;;;;;;5040513;28;20344;-76
2023/09/05 09:30:09;;;;;;;0.10;0.10;;;18.10;99.90;;;;;;5058672;28;20067;-77
2023/09/05 09:32:38;;;;;;;0.20;0.20;;;18.10;99.90;;;;;;5040921;28;20052;-76
2023/09/05 09:35:10;;;;;;;0.68;0.68;;;18.00;99.90;;;;;;5041250;28;20028;-76
2023/09/05 09:37:36;;;;;;;1.10;1.10;;;18.00;99.90;;;;;;5058616;28;20017;-76
2023/09/05 09:40:07;;;;;;;0.10;0.10;;;18.10;99.90;;;;;;5058539;28;20317;-76
2023/09/05 09:42:34;;;;;;;0.10;0.10;;;18.10;99.90;;;;;;5058747;28;20393;-76
2023/09/05 09:45:00;;;;;;;0.10;0.10;;;18.20;99.90;;;;;;5058977;28;20025;-76
2023/09/05 09:47:30;;;;;;;0.40;0.40;;;18.30;99.90;;;;;;5058412;28;20021;-80
2023/09/05 09:49:58;;;;;;;0.57;0.57;;;18.40;99.90;;;;;;5058807;28;20394;-77
2023/09/05 09:52:27;;;;;;;0.10;0.10;;;18.40;99.90;;;;;;5040266;28;20017;-77
2023/09/05 09:54:56;;;;;;;0.28;0.28;;;18.70;99.90;;;;;;5058319;28;20359;-76
2023/09/05 09:57:33;;;;;;;0.20;0.20;;;18.90;99.90;;;;;;5058197;28;20021;-76
2023/09/05 10:00:15;;;;;;;0.17;0.17;;;19.60;99.90;;;;;;5058580;28;20375;-77
2023/09/05 10:02:45;;;;;;;0.90;0.90;;;19.50;99.90;;;;;;5058144;28;20055;-76
2023/09/05 10:05:12;;;;;;;0.00;0.00;;;19.60;99.90;;;;;;5058018;28;20108;-76
2023/09/05 10:07:41;;;;;;;0.10;0.10;;;19.80;99.90;;;;;;5058157;28;20028;-77
2023/09/05 10:10:09;;;;;;;0.10;0.10;;;20.20;99.90;;;;;;5039711;28;20356;-77
2023/09/05 10:12:36;;;;;;;0.63;0.63;;;20.20;99.90;;;;;;5058152;28;20171;-77
2023/09/05 10:15:05;;;;;;;0.00;0.00;;;20.20;99.90;;;;;;5058091;28;20020;-77
2023/09/05 10:17:33;;;;;;;0.15;0.15;;;20.20;99.90;;;;;;5039928;28;20028;-77
2023/09/05 10:20:00;;;;;;;0.65;0.45;;;20.30;99.90;;;;;;5039653;28;20058;-76
2023/09/05 10:22:29;;;;;;;0.20;0.13;;;20.40;99.90;;;;;;5058778;28;20016;-78
2023/09/05 10:24:55;;;;;;;0.00;0.00;;;20.40;99.90;;;;;;5058653;28;20104;-77
2023/09/05 10:27:21;;;;;;;0.10;0.10;;;20.50;99.90;;;;;;5040727;28;20052;-78
2023/09/05 10:29:49;;;;;;;0.03;0.03;;;20.60;99.90;;;;;;5058901;28;20418;-77
2023/09/05 10:32:19;;;;;;;0.00;0.00;;;20.60;99.90;;;;;;5040687;28;20543;-77
2023/09/05 10:34:48;;;;;;;0.00;0.00;;;17.70;99.90;;;;;;5058193;28;20028;-77
2023/09/05 10:37:15;;;;;;;0.00;0.00;;;20.50;99.90;;;;;;5039593;28;20013;-76
2023/09/05 10:40:10;;;;;;;1.20;1.13;;;20.60;99.90;;;;;;5039460;28;20032;-77
2023/09/05 10:42:44;;;;;;;0.00;0.00;;;20.70;99.90;;;;;;4974741;28;20030;-77
2023/09/05 10:45:22;;;;;;;0.00;0.00;;;20.60;99.90;;;;;;4974506;28;20537;-76
2023/09/05 10:47:49;;;;;;;0.10;0.10;;;20.60;99.90;;;;;;4975530;28;20488;-77
2023/09/05 10:50:19;;;;;;;0.10;0.10;;;20.60;99.90;;;;;;4960237;28;20037;-76
2023/09/05 10:53:11;;;;;;;0.00;0.00;;;20.60;99.90;;;;;;4975174;28;20125;-76
2023/09/05 10:55:52;;;;;;;0.57;0.57;;;20.60;99.90;;;;;;4975193;28;20056;-78
2023/09/05 10:58:37;;;;;;;0.00;0.00;;;20.70;99.90;;;;;;4975208;28;20375;-77
2023/09/05 11:01:32;;;;;;;0.10;0.10;;;20.40;99.90;;;;;;4975450;28;20209;-76
2023/09/05 11:04:07;;;;;;;0.20;0.20;;;20.60;99.90;;;;;;4957777;28;20030;-76
2023/09/05 11:06:33;;;;;;;0.43;0.43;;;20.40;99.90;;;;;;4974961;28;20360;-77
2023/09/05 11:09:06;;;;;;;0.20;0.20;;;20.40;99.90;;;;;;4974968;28;20104;-76
2023/09/05 11:11:36;;;;;;;0.43;0.43;;;20.50;99.90;;;;;;4959108;28;20031;-76
2023/09/05 11:14:05;;;;;;;0.10;0.10;;;20.50;99.90;;;;;;4975290;28;20504;-77
2023/09/05 11:16:52;;;;;;;0.20;0.20;;;20.50;99.90;;;;;;4974909;28;20030;-76
2023/09/05 11:19:40;;;;;;;0.38;0.30;;;20.50;99.90;;;;;;5023972;28;20036;-76
2023/09/05 11:22:17;;;;;;;0.10;0.10;;;20.60;99.90;;;;;;5057318;28;20115;-76
2023/09/05 11:24:49;;;;;;;0.10;0.10;;;20.60;99.90;;;;;;5057067;28;20466;-76
2023/09/05 11:27:20;;;;;;;0.10;0.10;;;20.80;99.90;;;;;;5057102;28;20052;-78
2023/09/05 11:29:46;;;;;;;0.20;0.20;;;20.80;99.90;;;;;;5039199;28;20045;-78
2023/09/05 11:32:14;;;;;;;0.15;0.15;;;20.90;99.90;;;;;;5039486;28;20552;-78
2023/09/05 11:34:54;;;;;;;0.43;0.30;;;20.90;99.90;;;;;;5042898;28;20025;-79
2023/09/05 11:37:21;;;;;;;0.10;0.10;;;20.80;99.90;;;;;;5042855;28;20062;-78
2023/09/05 11:39:49;;;;;;;0.20;0.20;;;20.90;99.90;;;;;;5060329;28;20035;-77
2023/09/05 11:42:19;;;;;;;0.25;0.25;;;20.90;99.90;;;;;;5041766;28;20425;-76
2023/09/05 11:44:46;;;;;;;0.47;0.45;;;;;;;;;;5057266;28;20581;-78
2023/09/05 11:47:13;;;;;;;0.00;0.00;;;20.80;99.90;;;;;;5057046;28;20398;-79
2023/09/05 11:49:40;;;;;;;0.10;0.10;;;20.60;99.90;;;;;;5056804;28;20298;-76
2023/09/05 11:52:06;;;;;;;0.05;0.05;;;20.50;99.90;;;;;;5039029;28;20478;-78
2023/09/05 11:54:32;;;;;;;1.95;1.85;;;19.80;99.90;;;;;;5056791;28;20278;-78
2023/09/05 11:56:58;;;;;;;6.13;4.47;;;20.40;99.90;;;;;;5057596;28;20336;-78
2023/09/05 11:59:25;;;;;;;0.10;0.10;;;20.50;99.90;;;;;;5057425;28;20183;-78
2023/09/05 12:01:52;;;;;;;0.10;0.10;;;20.60;99.90;;;;;;5057339;28;20237;-78
2023/09/05 12:04:18;;;;;;;0.22;0.22;;;20.50;99.90;;;;;;5057174;28;20021;-75
2023/09/05 12:06:51;;;;;;;0.10;0.10;;;20.70;99.90;;;;;;5056900;28;20376;-76
2023/09/05 12:09:18;;;;;;;0.20;0.20;;;20.70;99.90;;;;;;5039494;28;20429;-74
2023/09/05 12:11:44;;;;;;;0.68;0.68;;;20.80;99.90;;;;;;5056679;28;20029;-77
2023/09/05 12:14:10;;;;;;;0.22;0.22;;;20.90;99.90;;;;;;5056813;28;20028;-77
2023/09/05 12:16:36;;;;;;;0.00;0.00;;;20.80;99.90;;;;;;5042233;28;20329;-76
2023/09/05 12:19:02;;;;;;;0.13;0.13;;;20.90;99.90;;;;;;5060385;28;20052;-77
2023/09/05 12:21:42;;;;;;;10.55;2.78;;;20.20;99.90;;;;;;5041936;28;20017;-75
2023/09/05 12:24:22;;;;;;;0.00;0.00;;;20.90;99.90;;;;;;5059879;28;20052;-75
2023/09/05 12:26:59;;;;;;;0.63;0.63;;;21.10;99.90;;;;;;5060031;28;20308;-78
2023/09/05 12:29:40;;;;;;;0.10;0.10;;;21.30;99.90;;;;;;5043120;28;20044;-78
2023/09/05 12:32:06;;;;;;;0.25;0.25;;;21.50;99.90;;;;;;5059982;28;20033;-78
2023/09/05 12:34:32;;;;;;;0.08;0.08;;;21.80;99.90;;;;;;5060004;28;20718;-79
2023/09/05 12:36:58;;;;;;;0.10;0.10;;;21.90;99.90;;;;;;5060081;28;20255;-78
2023/09/05 12:39:23;;;;;;;0.00;0.00;;;21.80;99.90;;;;;;5059979;28;20116;-78
2023/09/05 12:41:50;;;;;;;0.00;0.00;;;21.80;99.90;;;;;;5060165;28;20040;-78
2023/09/05 12:44:16;;;;;;;0.00;0.00;;;21.70;99.90;;;;;;5041873;28;20024;-78
2023/09/05 12:46:42;;;;;;;0.10;0.10;;;24.20;99.90;;;;;;5059805;28;20399;-76
2023/09/05 12:49:10;;;;;;;3.60;3.50;;;21.70;99.90;;;;;;5060153;28;20393;-79
2023/09/05 12:51:36;;;;;;;0.10;0.10;;;21.70;99.90;;;;;;5059925;28;20268;-75